createdAt,value
2019-04-30T00:01:29.935Z,102561.98
2019-04-30T00:04:00.991Z,102567.36
2019-04-30T00:06:34.570Z,102566.29
2019-04-30T00:09:01.545Z,102559.00
2019-04-30T00:11:31.186Z,102564.38
2019-04-30T00:14:00.660Z,102567.78
2019-04-30T00:16:31.071Z,102566.48
2019-04-30T00:19:01.438Z,102564.86
2019-04-30T00:21:31.116Z,102559.88
2019-04-30T00:24:05.355Z,102558.38
2019-04-30T00:26:31.898Z,102557.57
2019-04-30T00:29:01.418Z,102552.72
2019-04-30T00:31:31.065Z,102557.70
2019-04-30T00:34:01.463Z,102560.97
2019-04-30T00:36:34.198Z,102558.48
2019-04-30T00:39:02.130Z,102559.67
2019-04-30T00:41:31.705Z,102560.48
2019-04-30T00:44:01.277Z,102557.38
2019-04-30T00:46:30.704Z,102553.91
2019-04-30T00:49:09.340Z,102554.78
2019-04-30T00:51:31.399Z,102557.70
2019-04-30T00:54:00.943Z,102552.42
2019-04-30T00:56:30.521Z,102547.02
2019-04-30T00:59:02.404Z,102557.38
2019-04-30T01:01:49.215Z,102552.29
2019-04-30T01:04:24.663Z,102555.40
2019-04-30T01:06:59.912Z,102553.48
2019-04-30T01:09:25.936Z,102540.53
2019-04-30T01:11:55.404Z,102537.94
2019-04-30T01:14:28.320Z,102534.96
2019-04-30T01:16:56.019Z,102535.67
2019-04-30T01:19:30.031Z,102538.95
2019-04-30T01:21:56.943Z,102543.73
2019-04-30T01:24:31.597Z,102542.73
2019-04-30T01:27:06.878Z,102537.36
2019-04-30T01:29:41.486Z,102536.73
2019-04-30T01:32:05.360Z,102533.28
2019-04-30T01:34:35.053Z,102536.64
2019-04-30T01:37:04.695Z,102534.53
2019-04-30T01:39:34.139Z,102526.76
2019-04-30T01:42:07.906Z,102525.79
2019-04-30T01:44:36.514Z,102532.95
2019-04-30T01:47:06.015Z,102525.79
2019-04-30T01:49:41.940Z,102529.77
2019-04-30T01:52:06.857Z,102525.66
2019-04-30T01:54:36.292Z,102527.56
2019-04-30T01:57:25.414Z,102523.39
2019-04-30T02:02:43.794Z,102527.47
2019-04-30T02:05:14.971Z,102526.99
2019-04-30T02:07:46.045Z,102522.48
2019-04-30T02:10:16.010Z,102523.88
2019-04-30T02:12:45.510Z,102521.67
2019-04-30T02:15:15.351Z,102522.09
2019-04-30T02:17:46.475Z,102511.92
2019-04-30T02:20:16.259Z,102515.30
2019-04-30T02:22:45.854Z,102523.59
2019-04-30T02:25:15.461Z,102514.23
2019-04-30T02:27:44.913Z,102511.64
2019-04-30T02:30:14.556Z,102510.83
2019-04-30T02:32:44.421Z,102515.29
2019-04-30T02:35:32.307Z,102513.61
2019-04-30T02:38:20.231Z,102519.08
2019-04-30T02:40:52.598Z,102511.54
2019-04-30T02:43:24.225Z,102507.03
2019-04-30T02:45:56.154Z,102508.23
2019-04-30T02:48:29.454Z,102507.03
2019-04-30T02:51:01.240Z,102505.84
2019-04-30T02:53:53.094Z,102502.85
2019-04-30T02:56:26.516Z,102497.34
2019-04-30T02:58:55.408Z,102496.58
2019-04-30T03:01:24.817Z,102488.70
2019-04-30T03:03:54.413Z,102496.16
2019-04-30T03:06:23.976Z,102490.00
2019-04-30T03:08:53.527Z,102481.90
2019-04-30T03:11:23.068Z,102486.41
2019-04-30T03:13:52.507Z,102485.39
2019-04-30T03:16:32.508Z,102486.11
2019-04-30T03:19:03.543Z,102481.80
2019-04-30T03:21:43.574Z,102483.10
2019-04-30T03:24:13.252Z,102480.13
2019-04-30T03:26:44.244Z,102476.23
2019-04-30T03:29:13.702Z,102483.81
2019-04-30T03:31:45.317Z,102477.63
2019-04-30T03:34:24.287Z,102479.54
2019-04-30T03:36:45.589Z,102482.33
2019-04-30T03:39:15.231Z,102482.42
2019-04-30T03:41:44.637Z,102480.84
2019-04-30T03:44:21.548Z,102474.13
2019-04-30T03:46:45.248Z,102469.77
2019-04-30T03:49:14.676Z,102477.73
2019-04-30T03:51:44.121Z,102469.77
2019-04-30T03:54:13.562Z,102467.69
2019-04-30T03:56:43.804Z,102470.96
2019-04-30T03:59:13.484Z,102467.88
2019-04-30T04:02:00.168Z,102476.66
2019-04-30T04:04:31.375Z,102481.90
2019-04-30T04:07:02.470Z,102478.44
2019-04-30T04:12:20.401Z,102470.57
2019-04-30T04:14:51.060Z,102475.84
2019-04-30T04:17:21.873Z,102470.48
2019-04-30T04:19:51.921Z,102479.12
2019-04-30T04:22:23.161Z,102477.53
2019-04-30T04:24:52.717Z,102476.72
2019-04-30T04:27:22.159Z,102473.84
2019-04-30T04:29:51.629Z,102472.45
2019-04-30T04:32:24.304Z,102473.75
2019-04-30T04:34:54.067Z,102475.84
2019-04-30T04:37:25.012Z,102468.56
2019-04-30T04:39:54.462Z,102473.16
2019-04-30T04:42:25.407Z,102470.37
2019-04-30T04:44:54.855Z,102467.59
2019-04-30T04:47:24.264Z,102468.98
2019-04-30T04:49:54.196Z,102466.48
2019-04-30T04:52:23.698Z,102468.27
2019-04-30T04:54:53.210Z,102470.66
2019-04-30T04:57:23.310Z,102472.06
2019-04-30T04:59:53.064Z,102470.66
2019-04-30T05:02:36.079Z,102481.90
2019-04-30T05:05:09.476Z,102482.61
2019-04-30T05:07:39.901Z,102480.61
2019-04-30T05:10:10.263Z,102479.41
2019-04-30T05:12:39.988Z,102483.30
2019-04-30T05:15:10.804Z,102479.75
2019-04-30T05:17:40.223Z,102480.59
2019-04-30T05:20:10.277Z,102485.78
2019-04-30T05:22:39.698Z,102488.56
2019-04-30T05:25:10.281Z,102492.78
2019-04-30T05:27:39.685Z,102489.67
2019-04-30T05:30:12.055Z,102487.89
2019-04-30T05:32:40.822Z,102490.97
2019-04-30T05:35:31.301Z,102494.56
2019-04-30T05:38:00.688Z,102491.20
2019-04-30T05:40:30.147Z,102490.78
2019-04-30T05:43:00.391Z,102498.06
2019-04-30T05:45:30.141Z,102499.06
2019-04-30T05:47:59.579Z,102505.02
2019-04-30T05:50:29.681Z,102504.63
2019-04-30T05:52:59.319Z,102502.62
2019-04-30T05:55:29.440Z,102499.88
2019-04-30T05:58:01.569Z,102497.87
2019-04-30T06:00:30.818Z,102492.50
2019-04-30T06:03:00.327Z,102502.77
2019-04-30T06:05:31.530Z,102509.53
2019-04-30T06:08:01.044Z,102506.94
2019-04-30T06:10:39.705Z,102511.93
2019-04-30T06:13:16.762Z,102512.22
2019-04-30T06:15:59.930Z,102514.84
2019-04-30T06:18:29.405Z,102505.87
2019-04-30T06:20:59.526Z,102507.86
2019-04-30T06:23:29.461Z,102506.05
2019-04-30T06:26:08.975Z,102505.73
2019-04-30T06:28:31.566Z,102512.62
2019-04-30T06:31:01.446Z,102512.75
2019-04-30T06:33:31.484Z,102512.23
2019-04-30T06:36:01.263Z,102514.52
2019-04-30T06:38:30.869Z,102516.80
2019-04-30T06:41:00.375Z,102519.77
2019-04-30T06:43:30.646Z,102516.18
2019-04-30T06:46:00.151Z,102517.10
2019-04-30T06:48:30.229Z,102517.48
2019-04-30T06:51:01.099Z,102521.87
2019-04-30T06:53:30.541Z,102518.48
2019-04-30T06:56:00.013Z,102518.05
2019-04-30T06:58:29.502Z,102515.49
2019-04-30T07:00:59.578Z,102515.53
2019-04-30T07:03:29.217Z,102518.80
2019-04-30T07:05:58.764Z,102519.62
2019-04-30T07:08:54.673Z,102523.83
2019-04-30T07:11:20.631Z,102525.97
2019-04-30T07:13:57.754Z,102522.86
2019-04-30T07:16:22.019Z,102515.98
2019-04-30T07:18:51.577Z,102526.24
2019-04-30T07:21:21.182Z,102520.66
2019-04-30T07:23:50.664Z,102520.33
2019-04-30T07:26:24.455Z,102521.08
2019-04-30T07:28:55.316Z,102516.45
2019-04-30T07:31:24.275Z,102527.88
2019-04-30T07:33:54.144Z,102526.39
2019-04-30T07:36:42.503Z,102522.05
2019-04-30T07:38:57.025Z,102515.16
2019-04-30T07:41:30.882Z,102518.97
2019-04-30T07:43:59.394Z,102525.80
2019-04-30T07:46:35.082Z,102522.00
2019-04-30T07:49:01.764Z,102523.64
2019-04-30T07:51:37.137Z,102521.40
2019-04-30T07:54:02.437Z,102519.95
2019-04-30T07:56:37.477Z,102524.38
2019-04-30T07:59:03.174Z,102527.23
2019-04-30T08:01:32.788Z,102523.36
2019-04-30T08:04:03.855Z,102526.85
2019-04-30T08:06:33.432Z,102531.77
2019-04-30T08:09:04.669Z,102529.70
2019-04-30T08:11:39.013Z,102537.00
2019-04-30T08:14:06.557Z,102527.71
2019-04-30T08:16:36.190Z,102535.86
2019-04-30T08:19:05.753Z,102530.47
2019-04-30T08:21:35.207Z,102529.90
2019-04-30T08:24:04.706Z,102529.36
2019-04-30T08:26:34.218Z,102529.45
2019-04-30T08:29:03.817Z,102530.61
2019-04-30T08:31:33.344Z,102536.17
2019-04-30T08:34:02.832Z,102544.32
2019-04-30T08:36:33.177Z,102544.20
2019-04-30T08:39:02.902Z,102539.57
2019-04-30T08:41:32.493Z,102542.45
2019-04-30T08:44:01.937Z,102543.97
2019-04-30T08:46:31.385Z,102554.56
2019-04-30T08:49:01.066Z,102553.19
2019-04-30T08:51:31.450Z,102555.93
2019-04-30T08:54:01.279Z,102560.33
2019-04-30T08:56:30.736Z,102549.27
2019-04-30T08:59:00.222Z,102549.41
2019-04-30T09:01:29.729Z,102544.36
2019-04-30T09:03:59.803Z,102549.20
2019-04-30T09:06:30.252Z,102542.63
2019-04-30T09:09:00.567Z,102547.98
2019-04-30T09:11:42.915Z,102537.92
2019-04-30T09:14:01.266Z,102543.42
2019-04-30T09:16:30.737Z,102545.88
2019-04-30T09:19:00.187Z,102539.39
2019-04-30T09:21:30.092Z,102541.48
2019-04-30T09:23:59.674Z,102541.16
2019-04-30T09:26:29.228Z,102538.59
2019-04-30T09:28:59.341Z,102536.25
2019-04-30T09:31:30.630Z,102535.18
2019-04-30T09:34:00.931Z,102537.34
2019-04-30T09:36:30.564Z,102531.97
2019-04-30T09:39:01.720Z,102543.34
2019-04-30T09:41:31.172Z,102533.69
2019-04-30T09:44:00.617Z,102541.31
2019-04-30T09:46:30.209Z,102538.00
2019-04-30T09:49:00.742Z,102540.62
2019-04-30T09:51:31.342Z,102537.59
2019-04-30T09:54:03.629Z,102543.28
2019-04-30T09:56:32.288Z,102531.92
2019-04-30T09:59:01.768Z,102533.83
2019-04-30T10:01:32.975Z,102530.07
2019-04-30T10:04:02.868Z,102533.66
2019-04-30T10:06:39.635Z,102534.19
2019-04-30T10:09:05.361Z,102532.35
2019-04-30T10:11:55.501Z,102532.05
2019-04-30T10:14:25.113Z,102529.33
2019-04-30T10:17:05.286Z,102535.41
2019-04-30T10:19:34.793Z,102531.41
2019-04-30T10:22:04.503Z,102538.69
2019-04-30T10:24:39.204Z,102527.90
2019-04-30T10:27:12.907Z,102526.36
2019-04-30T10:29:41.218Z,102519.78
2019-04-30T10:32:10.724Z,102518.95
2019-04-30T10:34:40.353Z,102518.91
2019-04-30T10:37:10.185Z,102521.91
2019-04-30T10:39:43.091Z,102521.37
2019-04-30T10:42:12.509Z,102523.20
2019-04-30T10:44:41.959Z,102527.81
2019-04-30T10:47:11.717Z,102523.29
2019-04-30T10:49:41.216Z,102524.45
2019-04-30T10:52:10.624Z,102511.97
2019-04-30T10:54:40.942Z,102517.18
2019-04-30T10:57:10.373Z,102512.32
2019-04-30T10:59:40.684Z,102516.26
2019-04-30T11:02:10.106Z,102517.79
2019-04-30T11:04:39.700Z,102514.32
2019-04-30T11:07:09.370Z,102514.32
2019-04-30T11:09:39.392Z,102519.88
2019-04-30T11:12:09.499Z,102526.83
2019-04-30T11:14:39.340Z,102532.02
2019-04-30T11:17:09.906Z,102533.95
2019-04-30T11:19:39.927Z,102530.17
2019-04-30T11:22:09.697Z,102532.73
2019-04-30T11:24:54.029Z,102521.02
2019-04-30T11:27:11.514Z,102525.12
2019-04-30T11:29:41.838Z,102525.16
2019-04-30T11:32:13.514Z,102527.55
2019-04-30T11:34:43.146Z,102527.48
2019-04-30T11:37:12.614Z,102523.45
2019-04-30T11:39:42.331Z,102519.34
2019-04-30T11:42:11.744Z,102517.00
2019-04-30T11:44:44.194Z,102524.08
2019-04-30T11:47:16.714Z,102516.72
2019-04-30T11:49:46.161Z,102514.89
2019-04-30T11:52:15.892Z,102510.94
2019-04-30T11:54:51.434Z,102503.73
2019-04-30T11:57:18.747Z,102504.64
2019-04-30T11:59:48.382Z,102505.77
2019-04-30T12:02:22.973Z,102500.69
2019-04-30T12:04:52.427Z,102499.87
2019-04-30T12:07:23.477Z,102489.35
2019-04-30T12:10:03.500Z,102484.54
2019-04-30T12:12:32.937Z,102484.70
2019-04-30T12:15:02.885Z,102481.37
2019-04-30T12:17:32.366Z,102481.61
2019-04-30T12:20:01.804Z,102485.78
2019-04-30T12:22:31.474Z,102474.01
2019-04-30T12:25:03.245Z,102470.70
2019-04-30T12:27:32.451Z,102472.27
2019-04-30T12:30:02.001Z,102467.92
2019-04-30T12:32:31.395Z,102464.45
2019-04-30T12:35:01.028Z,102466.00
2019-04-30T12:37:30.764Z,102461.27
2019-04-30T12:40:00.213Z,102462.56
2019-04-30T12:42:30.101Z,102459.92
2019-04-30T12:44:59.657Z,102456.80
2019-04-30T12:47:30.876Z,102463.80
2019-04-30T12:50:05.125Z,102455.12
2019-04-30T12:52:42.547Z,102453.67
2019-04-30T12:55:25.810Z,102462.06
2019-04-30T12:57:59.651Z,102456.70
2019-04-30T13:00:29.417Z,102450.23
2019-04-30T13:03:00.370Z,102443.05
2019-04-30T13:05:30.077Z,102446.46
2019-04-30T13:08:01.142Z,102452.27
2019-04-30T13:10:31.750Z,102445.25
2019-04-30T13:13:04.035Z,102435.80
2019-04-30T13:15:34.856Z,102430.61
2019-04-30T13:18:04.384Z,102430.75
2019-04-30T13:20:34.012Z,102431.50
2019-04-30T13:23:03.499Z,102425.17
2019-04-30T13:25:35.481Z,102434.48
2019-04-30T13:28:06.058Z,102429.32
2019-04-30T13:30:35.847Z,102421.59
2019-04-30T13:33:20.251Z,102422.14
2019-04-30T13:35:49.322Z,102423.91
2019-04-30T13:38:20.671Z,102419.88
2019-04-30T13:40:54.542Z,102426.39
2019-04-30T13:43:42.587Z,102420.29
2019-04-30T13:46:12.123Z,102421.53
2019-04-30T13:48:43.382Z,102422.80
2019-04-30T13:51:12.843Z,102421.98
2019-04-30T13:53:42.274Z,102420.05
2019-04-30T13:56:11.874Z,102419.75
2019-04-30T13:58:41.324Z,102427.92
2019-04-30T14:01:10.772Z,102434.00
2019-04-30T14:03:42.201Z,102426.64
2019-04-30T14:06:13.468Z,102425.47
2019-04-30T14:08:48.800Z,102428.70
2019-04-30T14:11:18.990Z,102422.81
2019-04-30T14:13:48.613Z,102423.41
2019-04-30T14:16:18.075Z,102424.17
2019-04-30T14:18:48.780Z,102414.77
2019-04-30T14:21:19.397Z,102414.38
2019-04-30T14:23:49.772Z,102407.40
2019-04-30T14:26:19.586Z,102406.50
2019-04-30T14:28:49.133Z,102403.45
2019-04-30T14:31:18.718Z,102403.69
2019-04-30T14:33:49.721Z,102401.28
2019-04-30T14:36:20.805Z,102401.84
2019-04-30T14:38:50.257Z,102405.42
2019-04-30T14:41:20.295Z,102399.08
2019-04-30T14:43:54.971Z,102403.82
2019-04-30T14:46:42.013Z,102395.39
2019-04-30T14:49:15.429Z,102396.72
2019-04-30T14:51:44.664Z,102389.91
2019-04-30T14:54:15.755Z,102390.72
2019-04-30T14:57:03.881Z,102399.66
2019-04-30T14:59:39.025Z,102398.89
2019-04-30T15:02:26.609Z,102403.31
2019-04-30T15:04:56.072Z,102392.14
2019-04-30T15:07:25.787Z,102392.73
2019-04-30T15:09:55.402Z,102393.95
2019-04-30T15:12:24.948Z,102394.48
2019-04-30T15:14:54.476Z,102389.98
2019-04-30T15:17:24.029Z,102392.77
2019-04-30T15:19:54.561Z,102381.16
2019-04-30T15:22:24.223Z,102388.14
2019-04-30T15:24:53.666Z,102383.48
2019-04-30T15:27:23.117Z,102382.13
2019-04-30T15:29:57.267Z,102378.45
2019-04-30T15:32:24.058Z,102380.12
2019-04-30T15:34:53.547Z,102377.50
2019-04-30T15:37:23.949Z,102380.48
2019-04-30T15:39:53.581Z,102380.31
2019-04-30T15:42:23.434Z,102378.97
2019-04-30T15:44:53.170Z,102373.19
2019-04-30T15:47:23.326Z,102375.80
2019-04-30T15:49:52.785Z,102374.82
2019-04-30T15:52:22.241Z,102374.14
2019-04-30T15:54:51.751Z,102381.10
2019-04-30T15:57:21.194Z,102371.08
2019-04-30T15:59:50.767Z,102378.91
2019-04-30T16:02:24.916Z,102366.21
2019-04-30T16:05:05.118Z,102370.68
2019-04-30T16:07:36.362Z,102370.44
2019-04-30T16:10:09.309Z,102373.52
2019-04-30T16:12:55.926Z,102363.81
2019-04-30T16:15:26.902Z,102361.97
2019-04-30T16:17:59.510Z,102364.45
2019-04-30T16:20:30.667Z,102364.41
2019-04-30T16:23:00.126Z,102360.67
2019-04-30T16:25:30.324Z,102363.42
2019-04-30T16:27:59.876Z,102360.30
2019-04-30T16:30:29.417Z,102352.42
2019-04-30T16:32:59.636Z,102353.18
2019-04-30T16:35:29.601Z,102348.59
2019-04-30T16:37:59.519Z,102347.02
2019-04-30T16:40:29.181Z,102353.89
2019-04-30T16:42:58.640Z,102357.26
2019-04-30T16:45:29.053Z,102349.66
2019-04-30T16:47:58.664Z,102349.20
2019-04-30T16:50:29.926Z,102346.78
2019-04-30T16:52:59.542Z,102345.09
2019-04-30T16:55:28.974Z,102354.02
2019-04-30T16:57:59.676Z,102349.30
2019-04-30T17:00:30.883Z,102346.64
2019-04-30T17:03:02.008Z,102344.33
2019-04-30T17:05:42.019Z,102339.82
2019-04-30T17:08:16.123Z,102338.66
2019-04-30T17:10:53.450Z,102340.95
2019-04-30T17:13:33.448Z,102339.66
2019-04-30T17:16:04.501Z,102333.70
2019-04-30T17:18:34.005Z,102342.23
2019-04-30T17:21:03.522Z,102338.69
2019-04-30T17:23:32.960Z,102336.48
2019-04-30T17:26:02.602Z,102332.19
2019-04-30T17:28:32.062Z,102328.33
2019-04-30T17:31:01.556Z,102328.16
2019-04-30T17:33:31.027Z,102331.51
2019-04-30T17:36:00.666Z,102328.30
2019-04-30T17:38:31.585Z,102327.78
2019-04-30T17:41:01.245Z,102328.80
2019-04-30T17:43:30.729Z,102326.72
2019-04-30T17:46:04.121Z,102322.86
2019-04-30T17:48:32.795Z,102323.60
2019-04-30T17:51:02.292Z,102327.75
2019-04-30T17:53:33.323Z,102325.86
2019-04-30T17:56:02.768Z,102329.80
2019-04-30T17:58:32.343Z,102332.03
2019-04-30T18:01:03.277Z,102325.68
2019-04-30T18:03:32.807Z,102325.03
2019-04-30T18:06:02.358Z,102328.41
2019-04-30T18:08:31.800Z,102318.03
2019-04-30T18:11:01.212Z,102321.49
2019-04-30T18:13:30.699Z,102317.13
2019-04-30T18:16:00.518Z,102319.11
2019-04-30T18:18:34.498Z,102315.05
2019-04-30T18:21:05.688Z,102319.11
2019-04-30T18:23:39.535Z,102313.66
2019-04-30T18:26:10.749Z,102312.27
2019-04-30T18:28:40.341Z,102315.30
2019-04-30T18:31:09.819Z,102314.66
2019-04-30T18:33:39.280Z,102310.76
2019-04-30T18:36:09.600Z,102309.98
2019-04-30T18:38:39.273Z,102306.79
2019-04-30T18:41:09.454Z,102300.73
2019-04-30T18:43:40.547Z,102306.05
2019-04-30T18:46:10.798Z,102308.87
2019-04-30T18:48:40.546Z,102307.87
2019-04-30T18:51:29.907Z,102307.66
2019-04-30T18:53:43.215Z,102313.88
2019-04-30T18:56:14.871Z,102313.28
2019-04-30T18:58:43.815Z,102307.52
2019-04-30T19:01:15.058Z,102306.79
2019-04-30T19:03:44.572Z,102313.33
2019-04-30T19:06:23.104Z,102309.73
2019-04-30T19:08:48.517Z,102310.95
2019-04-30T19:11:20.463Z,102314.28
2019-04-30T19:14:00.000Z,102318.69
2019-04-30T19:16:32.805Z,102316.86
2019-04-30T19:19:12.686Z,102311.98
2019-04-30T19:21:41.316Z,102313.50
2019-04-30T19:24:10.763Z,102309.00
2019-04-30T19:26:40.205Z,102313.89
2019-04-30T19:29:10.055Z,102309.39
2019-04-30T19:31:39.559Z,102305.15
2019-04-30T19:34:09.735Z,102309.61
2019-04-30T19:36:40.730Z,102308.52
2019-04-30T19:39:11.913Z,102308.30
2019-04-30T19:41:41.357Z,102308.77
2019-04-30T19:44:11.186Z,102308.31
2019-04-30T19:46:40.849Z,102306.97
2019-04-30T19:49:10.384Z,102306.54
2019-04-30T19:51:40.270Z,102304.29
2019-04-30T19:54:11.399Z,102305.46
2019-04-30T19:56:41.232Z,102300.01
2019-04-30T19:59:10.958Z,102302.95
2019-04-30T20:01:40.589Z,102305.98
2019-04-30T20:04:10.476Z,102308.40
2019-04-30T20:06:39.960Z,102302.81
2019-04-30T20:09:09.627Z,102304.07
2019-04-30T20:11:39.834Z,102298.62
2019-04-30T20:14:10.404Z,102297.19
2019-04-30T20:16:40.381Z,102297.45
2019-04-30T20:19:09.999Z,102300.05
2019-04-30T20:21:50.401Z,102300.25
2019-04-30T20:24:10.833Z,102290.78
2019-04-30T20:26:40.304Z,102285.67
2019-04-30T20:29:09.763Z,102288.05
2019-04-30T20:31:39.368Z,102284.29
2019-04-30T20:34:09.259Z,102280.00
2019-04-30T20:36:38.944Z,102278.16
2019-04-30T20:39:11.001Z,102286.77
2019-04-30T20:41:41.976Z,102286.22
2019-04-30T20:44:11.676Z,102280.77
2019-04-30T20:46:41.413Z,102275.15
2019-04-30T20:49:10.913Z,102279.47
2019-04-30T20:51:52.710Z,102277.27
2019-04-30T20:54:11.579Z,102275.53
2019-04-30T20:56:41.024Z,102270.91
2019-04-30T20:59:10.978Z,102271.09
2019-04-30T21:01:40.439Z,102266.76
2019-04-30T21:04:10.009Z,102267.98
2019-04-30T21:06:39.636Z,102270.78
2019-04-30T21:09:11.913Z,102263.09
2019-04-30T21:11:41.495Z,102263.44
2019-04-30T21:14:11.006Z,102262.83
2019-04-30T21:16:40.615Z,102263.27
2019-04-30T21:19:10.232Z,102259.41
2019-04-30T21:21:39.748Z,102257.08
2019-04-30T21:24:09.606Z,102256.09
2019-04-30T21:26:40.942Z,102254.70
2019-04-30T21:29:15.356Z,102244.63
2019-04-30T21:31:52.242Z,102258.08
2019-04-30T21:34:26.072Z,102252.89
2019-04-30T21:36:55.605Z,102255.83
2019-04-30T21:39:25.097Z,102258.33
2019-04-30T21:41:54.540Z,102250.52
2019-04-30T21:44:23.988Z,102245.67
2019-04-30T21:46:53.437Z,102245.58
2019-04-30T21:49:22.882Z,102242.85
2019-04-30T21:51:52.412Z,102249.16
2019-04-30T21:54:21.843Z,102240.77
2019-04-30T21:56:51.302Z,102237.36
2019-04-30T21:59:24.462Z,102241.68
2019-04-30T22:01:51.904Z,102237.66
2019-04-30T22:04:21.341Z,102237.19
2019-04-30T22:06:50.950Z,102232.34
2019-04-30T22:09:21.079Z,102237.94
2019-04-30T22:11:50.746Z,102231.36
2019-04-30T22:14:20.313Z,102240.35
2019-04-30T22:16:49.755Z,102236.51
2019-04-30T22:19:19.229Z,102232.23
2019-04-30T22:21:50.278Z,102227.44
2019-04-30T22:24:19.698Z,102229.42
2019-04-30T22:26:49.131Z,102228.34
2019-04-30T22:29:19.137Z,102225.36
2019-04-30T22:31:49.431Z,102220.00
2019-04-30T22:34:18.937Z,102220.39
2019-04-30T22:36:49.015Z,102221.51
2019-04-30T22:39:20.633Z,102217.11
2019-04-30T22:41:50.139Z,102211.41
2019-04-30T22:44:19.551Z,102222.47
2019-04-30T22:46:49.282Z,102220.22
2019-04-30T22:49:18.815Z,102221.72
2019-04-30T22:51:48.258Z,102217.02
2019-04-30T22:54:17.730Z,102214.34
2019-04-30T22:56:47.174Z,102210.75
2019-04-30T22:59:18.187Z,102207.69
2019-04-30T23:01:49.338Z,102201.77
2019-04-30T23:04:20.487Z,102207.38
2019-04-30T23:06:49.928Z,102203.48
2019-04-30T23:09:19.542Z,102209.63
2019-04-30T23:11:49.255Z,102204.06
2019-04-30T23:14:18.697Z,102203.92
2019-04-30T23:16:48.202Z,102193.03
2019-04-30T23:19:17.639Z,102196.80
2019-04-30T23:21:47.088Z,102193.91
2019-04-30T23:24:16.472Z,102195.33
2019-04-30T23:26:46.035Z,102190.14
2019-04-30T23:29:15.428Z,102185.00
2019-04-30T23:31:44.919Z,102180.08
2019-04-30T23:34:18.169Z,102180.42
2019-04-30T23:36:45.462Z,102175.28
2019-04-30T23:39:15.370Z,102174.47
2019-04-30T23:41:44.827Z,102175.93
2019-04-30T23:44:14.340Z,102167.85
2019-04-30T23:46:43.804Z,102174.16
2019-04-30T23:49:13.384Z,102170.61
2019-04-30T23:51:42.931Z,102165.87
2019-04-30T23:54:12.337Z,102161.98
2019-04-30T23:56:41.772Z,102160.16
2019-04-30T23:59:11.241Z,102152.56
